Kota Kinabalu, Malaysia
Current Conditions -  °F | °C
As of 11:30 AM on Saturday 29 Nov 2014 (Local Time) from WBKK Reporting Station
Broken Clouds Broken Clouds  
Wind Chill: 33°   Ceiling: 29000
Heat Index: 42°   Visibility: 6mi
Dew Point: 26°   Wind: 2mph
Humidity: 66%   Direction: 280°W
Pressure: 29.77"   Gusts: NA
Location:  5.97°N, 116.07°E
Report Text: WBKK 290330Z 28002KT 9999 FEW015 BKN290 33/26 Q1008 NOSIG
Loading
Personal Weather Stations






























Interactive Weather Map New forecast layout! Learn more

10-Day Weather Forecast

Advertisements
Track Severe Weather on mobile